Time;durP1;ratioP1;P1;durP2;ratioP2;P2;SDS_P1;SDS_P2;PMS_P1;PMS_P2;Temp;Humidity;BMP_temperature;BMP_pressure;BME280_temperature;BME280_humidity;BME280_pressure;Samples;Min_cycle;Max_cycle;Signal;HPM_P1;HPM_P2
2023/02/07 00:01:43;;;;;;;225.20;96.30;;;;;;;-6.05;79.90;102861.52;106828;1255;22719;-61
2023/02/07 00:04:13;;;;;;;220.70;89.50;;;;;;;-6.05;79.79;102853.58;106794;1259;23315;-65
2023/02/07 00:06:44;;;;;;;211.60;90.70;;;;;;;-6.07;79.81;102849.20;106878;1264;22719;-63
2023/02/07 00:09:16;;;;;;;201.30;88.30;;;;;;;-6.08;79.76;102850.52;106646;1270;22686;-61
2023/02/07 00:11:47;;;;;;;195.20;83.90;;;;;;;-6.11;79.76;102854.66;106803;1270;22739;-62
2023/02/07 00:14:17;;;;;;;204.30;86.20;;;;;;;-6.10;79.89;102856.11;106714;1271;22753;-63
2023/02/07 00:16:49;;;;;;;205.00;84.50;;;;;;;-6.11;79.63;102857.44;106814;1259;22675;-64
2023/02/07 00:19:20;;;;;;;199.90;82.90;;;;;;;-6.15;79.49;102865.02;106750;1266;22557;-62
2023/02/07 00:21:50;;;;;;;204.40;84.30;;;;;;;-6.19;79.59;102872.40;106753;1273;22642;-63
2023/02/07 00:24:22;;;;;;;196.10;80.70;;;;;;;-6.22;79.57;102869.81;106824;1267;25635;-61
2023/02/07 00:26:54;;;;;;;202.10;88.20;;;;;;;-6.23;79.67;102872.48;106920;1271;26719;-62
2023/02/07 00:29:25;;;;;;;204.40;85.50;;;;;;;-6.25;79.83;102876.86;106848;1271;22640;-64
2023/02/07 00:31:56;;;;;;;194.10;82.00;;;;;;;-6.25;79.88;102880.13;106825;1272;22993;-62
2023/02/07 00:34:27;;;;;;;192.00;80.60;;;;;;;-6.26;79.79;102884.45;106829;1268;24269;-63
2023/02/07 00:36:58;;;;;;;189.90;83.40;;;;;;;-6.30;79.59;102887.57;106669;1273;25194;-64
2023/02/07 00:39:29;;;;;;;201.90;83.40;;;;;;;-6.34;79.76;102884.70;106679;1266;24246;-63
2023/02/07 00:42:00;;;;;;;207.80;82.10;;;;;;;-6.34;79.87;102885.54;106732;1269;22723;-63
2023/02/07 00:44:31;;;;;;;206.60;84.10;;;;;;;-6.37;79.57;102884.89;106739;1271;22642;-60
2023/02/07 00:47:02;;;;;;;193.00;80.90;;;;;;;-6.40;79.53;102882.66;106866;1273;22607;-63
2023/02/07 00:49:33;;;;;;;196.30;79.10;;;;;;;-6.46;79.25;102880.21;106689;1273;23025;-64
2023/02/07 00:52:04;;;;;;;187.20;76.90;;;;;;;-6.53;79.31;102879.58;106838;1273;26415;-63
2023/02/07 00:54:35;;;;;;;179.60;74.70;;;;;;;-6.56;79.80;102872.02;106839;1271;23058;-65
2023/02/07 00:57:06;;;;;;;187.80;74.40;;;;;;;-6.56;79.87;102857.95;106850;1266;22708;-62
2023/02/07 00:59:37;;;;;;;167.90;72.90;;;;;;;-6.61;79.82;102846.84;106705;1266;22722;-65
2023/02/07 01:02:08;;;;;;;189.70;81.10;;;;;;;-6.61;79.97;102852.13;106784;1262;22684;-64
2023/02/07 01:04:39;;;;;;;181.50;74.10;;;;;;;-6.59;80.34;102840.95;106897;1271;25455;-61
2023/02/07 01:07:11;;;;;;;195.40;76.90;;;;;;;-6.55;80.19;102826.25;106711;1273;22739;-62
2023/02/07 01:09:42;;;;;;;187.90;78.60;;;;;;;-6.57;79.83;102823.04;106945;1273;24335;-63
2023/02/07 01:12:13;;;;;;;185.70;74.20;;;;;;;-6.60;80.06;102823.29;106831;1273;22561;-62
2023/02/07 01:14:44;;;;;;;174.90;72.60;;;;;;;-6.60;80.28;102813.89;106703;1266;24366;-62
2023/02/07 01:17:15;;;;;;;173.30;73.00;;;;;;;-6.63;79.93;102809.61;106773;1266;23322;-62
2023/02/07 01:19:46;;;;;;;171.70;73.20;;;;;;;-6.66;80.18;102810.33;106696;1269;22580;-62
2023/02/07 01:22:17;;;;;;;182.30;75.60;;;;;;;-6.68;80.11;102805.52;106812;1259;25440;-63
2023/02/07 01:24:48;;;;;;;184.70;75.90;;;;;;;-6.70;80.13;102797.85;106797;1273;24358;-63
2023/02/07 01:27:19;;;;;;;186.60;76.10;;;;;;;-6.71;80.43;102799.99;106639;1273;22554;-60
2023/02/07 01:29:50;;;;;;;187.60;73.70;;;;;;;-6.71;80.45;102799.29;106769;1273;23124;-63
2023/02/07 01:32:21;;;;;;;186.90;77.00;;;;;;;-6.71;80.53;102798.63;106766;1270;22708;-62
2023/02/07 01:34:52;;;;;;;182.20;77.50;;;;;;;-6.68;80.64;102799.23;106799;1273;22776;-62
2023/02/07 01:37:23;;;;;;;195.00;74.90;;;;;;;-6.64;80.61;102791.38;106764;1267;22684;-59
2023/02/07 01:39:54;;;;;;;182.00;76.30;;;;;;;-6.64;80.31;102788.11;106757;1273;22714;-61
2023/02/07 01:42:28;;;;;;;190.70;75.90;;;;;;;-6.67;80.22;102788.71;106633;1259;22569;-61
2023/02/07 01:45:06;;;;;;;187.60;79.70;;;;;;;-6.70;79.90;102789.80;106698;1273;25514;-60
2023/02/07 01:47:39;;;;;;;178.20;75.20;;;;;;;-6.75;79.74;102785.34;106900;1273;22597;-60
2023/02/07 01:50:11;;;;;;;197.20;77.20;;;;;;;-6.79;79.76;102782.60;106656;1253;23153;-61
2023/02/07 01:52:43;;;;;;;191.60;78.60;;;;;;;-6.81;80.11;102786.92;106970;1265;25554;-61
2023/02/07 01:55:16;;;;;;;188.70;78.90;;;;;;;-6.81;80.35;102792.52;107019;1266;22600;-62
2023/02/07 01:57:47;;;;;;;184.50;80.50;;;;;;;-6.80;80.15;102783.77;106799;1262;25655;-61
2023/02/07 02:00:19;;;;;;;199.60;78.40;;;;;;;-6.83;80.27;102786.25;106630;1265;22715;-61
2023/02/07 02:02:50;;;;;;;182.20;76.50;;;;;;;-6.82;80.36;102792.10;106686;1271;25263;-61
2023/02/07 02:05:22;;;;;;;187.80;78.10;;;;;;;-6.83;80.45;102787.48;106817;1273;23123;-61
2023/02/07 02:07:53;;;;;;;188.80;80.80;;;;;;;-6.82;80.55;102790.58;106771;1273;22715;-61
2023/02/07 02:10:31;;;;;;;192.80;78.80;;;;;;;-6.81;80.46;102793.72;106947;1273;22513;-61
2023/02/07 02:13:15;;;;;;;183.30;76.20;;;;;;;-6.83;80.28;102799.45;106871;1273;22678;-63
2023/02/07 02:15:56;;;;;;;187.60;77.80;;;;;;;-6.83;80.33;102799.66;107012;1273;24394;-60
2023/02/07 02:18:54;;;;;;;185.40;75.60;;;;;;;-6.83;80.28;102800.76;106965;1262;23028;-62
2023/02/07 02:21:59;;;;;;;181.10;74.70;;;;;;;-6.83;80.45;102810.11;106664;1271;24170;-61
2023/02/07 02:25:07;;;;;;;192.30;75.60;;;;;;;-6.82;80.32;102814.53;106712;1272;25370;-63
2023/02/07 02:28:13;;;;;;;175.00;73.90;;;;;;;-6.81;80.30;102812.03;106875;1273;24407;-64
2023/02/07 02:31:15;;;;;;;183.10;73.40;;;;;;;-6.81;80.18;102806.55;106443;1279;24301;-61
2023/02/07 02:33:51;;;;;;;183.30;78.10;;;;;;;-6.80;80.17;102803.64;105898;1277;22629;-63
2023/02/07 02:36:32;;;;;;;209.00;83.30;;;;;;;-6.81;80.17;102805.45;106293;1273;24065;-63
2023/02/07 02:39:10;;;;;;;201.50;81.10;;;;;;;-6.80;80.20;102810.16;105880;1281;22657;-63
2023/02/07 02:41:48;;;;;;;211.10;85.90;;;;;;;-6.79;80.36;102804.61;105836;1271;22611;-63
2023/02/07 02:44:26;;;;;;;221.60;91.50;;;;;;;-6.79;80.17;102804.06;105863;1279;22707;-61
2023/02/07 02:46:58;;;;;;;217.50;90.80;;;;;;;-6.82;80.08;102796.33;105809;1281;25588;-63
2023/02/07 02:49:30;;;;;;;221.50;86.70;;;;;;;-6.85;79.81;102793.48;105955;1278;22668;-62
2023/02/07 02:52:01;;;;;;;212.00;88.30;;;;;;;-6.91;79.50;102800.80;105959;1284;22680;-63
2023/02/07 02:54:35;;;;;;;235.30;92.20;;;;;;;-7.00;79.46;102792.81;106079;1284;22635;-61
2023/02/07 02:57:41;;;;;;;240.60;94.20;;;;;;;-7.06;79.44;102790.27;106153;1278;22703;-64
2023/02/07 03:00:24;;;;;;;227.10;93.10;;;;;;;-7.10;79.94;102789.48;105629;1289;22570;-62
2023/02/07 03:03:14;;;;;;;227.40;93.90;;;;;;;-7.10;80.16;102787.91;105668;1284;23184;-62
2023/02/07 03:05:54;;;;;;;224.00;90.60;;;;;;;-7.12;79.95;102786.85;105649;1287;27956;-61
2023/02/07 03:08:36;;;;;;;220.20;93.50;;;;;;;-7.15;80.05;102793.25;105762;1283;22538;-63
2023/02/07 03:11:12;;;;;;;212.90;89.20;;;;;;;-7.19;79.90;102794.67;106227;1278;21812;-62
2023/02/07 03:13:58;;;;;;;210.20;87.00;;;;;;;-7.22;79.95;102795.61;106305;1272;22653;-62
2023/02/07 03:16:40;;;;;;;193.00;84.70;;;;;;;-7.24;80.11;102804.44;106307;1268;22646;-60
2023/02/07 03:19:15;;;;;;;205.90;84.50;;;;;;;-7.23;80.38;102807.72;106368;1277;22803;-62
2023/02/07 03:21:52;;;;;;;210.40;84.90;;;;;;;-7.24;80.17;102807.63;106520;1278;22619;-59
2023/02/07 03:24:29;;;;;;;197.10;83.50;;;;;;;-7.27;80.24;102800.14;106346;1278;22550;-61
2023/02/07 03:27:05;;;;;;;198.30;84.00;;;;;;;-7.27;80.59;102803.88;106262;1272;23014;-63
2023/02/07 03:29:40;;;;;;;197.10;83.70;;;;;;;-7.24;80.64;102800.46;106300;1276;22875;-62
2023/02/07 03:32:12;;;;;;;205.50;84.30;;;;;;;-7.22;80.50;102801.90;106370;1274;22735;-60
2023/02/07 03:34:49;;;;;;;203.00;83.30;;;;;;;-7.23;80.04;102800.94;106393;1267;22518;-61
2023/02/07 03:37:26;;;;;;;211.60;85.90;;;;;;;-7.26;80.21;102805.60;106795;1273;25542;-63
2023/02/07 03:39:58;;;;;;;206.00;83.00;;;;;;;-7.29;80.05;102809.02;106746;1273;25441;-62
2023/02/07 03:42:33;;;;;;;202.20;85.30;;;;;;;-7.34;79.75;102812.36;106809;1270;24362;-62
2023/02/07 03:45:07;;;;;;;206.40;83.60;;;;;;;-7.38;80.06;102819.63;106845;1259;24192;-62
2023/02/07 03:47:37;;;;;;;208.40;84.40;;;;;;;-7.39;80.04;102826.02;106843;1262;22568;-61
2023/02/07 03:50:10;;;;;;;196.50;80.40;;;;;;;-7.40;80.17;102827.48;106864;1262;22778;-62
2023/02/07 03:52:40;;;;;;;203.60;82.80;;;;;;;-7.41;80.30;102826.14;106843;1267;25561;-63
2023/02/07 03:55:12;;;;;;;202.10;81.20;;;;;;;-7.39;80.57;102827.19;106877;1273;22562;-62
2023/02/07 03:57:43;;;;;;;200.90;78.50;;;;;;;-7.38;80.30;102830.10;106872;1273;24196;-60
2023/02/07 04:00:15;;;;;;;211.60;79.80;;;;;;;-7.38;80.28;102828.48;106873;1273;22749;-63
2023/02/07 04:02:46;;;;;;;193.10;78.40;;;;;;;-7.42;79.91;102831.84;106875;1256;21855;-63
2023/02/07 04:05:17;;;;;;;192.40;75.90;;;;;;;-7.46;79.73;102832.03;106711;1273;22576;-63
2023/02/07 04:07:48;;;;;;;190.30;79.10;;;;;;;-7.49;79.90;102832.63;106806;1267;22616;-63
2023/02/07 04:10:19;;;;;;;192.90;76.10;;;;;;;-7.52;79.77;102830.05;106721;1273;22702;-62
2023/02/07 04:12:50;;;;;;;205.90;81.50;;;;;;;-7.55;79.90;102827.92;106798;1274;25251;-63
2023/02/07 04:15:22;;;;;;;198.70;80.60;;;;;;;-7.59;79.81;102829.39;106919;1266;22727;-60
2023/02/07 04:17:52;;;;;;;196.70;81.00;;;;;;;-7.63;79.70;102822.57;106792;1268;22559;-62
2023/02/07 04:20:23;;;;;;;189.50;77.50;;;;;;;-7.67;79.83;102820.42;106886;1271;22612;-62
2023/02/07 04:22:54;;;;;;;200.40;81.20;;;;;;;-7.66;80.28;102823.82;106720;1272;22634;-60
2023/02/07 04:25:25;;;;;;;198.00;80.90;;;;;;;-7.64;80.04;102820.86;106708;1269;24219;-63
2023/02/07 04:27:56;;;;;;;180.40;76.30;;;;;;;-7.66;79.80;102818.49;106830;1273;22695;-63
2023/02/07 04:30:27;;;;;;;187.00;79.00;;;;;;;-7.69;80.01;102825.81;107161;1270;23012;-61
2023/02/07 04:32:58;;;;;;;199.60;78.70;;;;;;;-7.71;80.16;102826.92;106635;1272;218636;-60
2023/02/07 04:35:29;;;;;;;193.20;78.50;;;;;;;-7.71;79.99;102825.79;106762;1258;22598;-62
2023/02/07 04:38:00;;;;;;;190.40;80.50;;;;;;;-7.74;79.80;102826.70;106739;1273;22581;-60
2023/02/07 04:40:30;;;;;;;201.30;78.50;;;;;;;-7.76;80.26;102828.08;106851;1259;28545;-62
2023/02/07 04:43:01;;;;;;;190.30;83.30;;;;;;;-7.74;80.40;102825.63;106935;1273;25348;-63
2023/02/07 04:45:32;;;;;;;200.30;80.20;;;;;;;-7.76;80.15;102821.90;106914;1273;23694;-61
2023/02/07 04:48:04;;;;;;;196.20;80.00;;;;;;;-7.78;79.79;102823.66;106816;1267;22595;-62
2023/02/07 04:50:35;;;;;;;192.90;83.30;;;;;;;-7.81;80.18;102825.95;106775;1273;23038;-62
2023/02/07 04:53:05;;;;;;;215.50;82.40;;;;;;;-7.80;80.46;102824.95;106740;1273;24213;-64
2023/02/07 04:55:36;;;;;;;203.70;76.60;;;;;;;-7.81;80.20;102824.64;106796;1273;24549;-63
2023/02/07 04:58:08;;;;;;;206.80;83.10;;;;;;;-7.82;80.36;102832.95;106836;1257;24741;-63
2023/02/07 05:00:39;;;;;;;198.20;76.70;;;;;;;-7.84;80.17;102837.20;106785;1273;24192;-62
2023/02/07 05:03:10;;;;;;;204.00;78.30;;;;;;;-7.86;80.29;102831.86;106721;1259;22643;-62
2023/02/07 05:05:42;;;;;;;195.80;77.60;;;;;;;-7.86;80.35;102834.53;106799;1267;24338;-63
2023/02/07 05:08:14;;;;;;;185.40;73.60;;;;;;;-7.86;80.33;102832.14;106873;1256;21752;-62
2023/02/07 05:10:44;;;;;;;199.70;77.50;;;;;;;-7.87;80.57;102826.30;106799;1268;24296;-60
2023/02/07 05:13:15;;;;;;;182.20;75.40;;;;;;;-7.89;80.14;102823.48;106708;1273;25572;-62
2023/02/07 05:15:47;;;;;;;184.80;72.00;;;;;;;-7.93;80.08;102823.23;106950;1273;24237;-61
2023/02/07 05:18:18;;;;;;;178.60;73.30;;;;;;;-7.93;80.50;102819.80;106899;1265;24247;-62
2023/02/07 05:20:49;;;;;;;190.70;73.80;;;;;;;-7.90;80.68;102816.10;106854;1273;22584;-62
2023/02/07 05:23:20;;;;;;;180.50;67.20;;;;;;;-7.91;80.62;102809.66;106797;1273;22579;-63
2023/02/07 05:25:51;;;;;;;175.10;68.80;;;;;;;-7.92;80.52;102814.37;106734;1267;24216;-62
2023/02/07 05:28:22;;;;;;;167.80;68.30;;;;;;;-7.91;80.77;102818.98;106754;1261;22731;-62
2023/02/07 05:30:57;;;;;;;172.50;69.30;;;;;;;-7.93;80.66;102821.98;106840;1272;24156;-63
2023/02/07 05:33:28;;;;;;;161.30;66.00;;;;;;;-7.97;80.47;102823.40;106734;1268;23190;-62
2023/02/07 05:36:01;;;;;;;175.40;69.60;;;;;;;-8.02;80.60;102823.03;106698;1273;22583;-61
2023/02/07 05:38:33;;;;;;;182.30;70.70;;;;;;;-8.04;80.72;102826.52;106764;1273;22563;-60
2023/02/07 05:41:08;;;;;;;175.20;69.30;;;;;;;-8.04;80.94;102830.36;106906;1273;24046;-62
2023/02/07 05:43:39;;;;;;;176.30;68.70;;;;;;;-8.03;81.22;102832.57;106724;1263;24254;-61
2023/02/07 05:46:10;;;;;;;176.80;68.50;;;;;;;-8.00;81.18;102832.98;106929;1266;25286;-61
2023/02/07 05:48:41;;;;;;;186.30;73.30;;;;;;;-7.99;81.24;102831.98;106780;1273;22556;-62
2023/02/07 05:51:12;;;;;;;188.40;74.80;;;;;;;-7.99;80.79;102825.20;106728;1273;22562;-62
2023/02/07 05:53:43;;;;;;;201.50;76.80;;;;;;;-8.03;80.46;102819.79;106684;1268;25527;-61
2023/02/07 05:56:14;;;;;;;195.00;76.70;;;;;;;-8.07;80.60;102813.94;106834;1273;22575;-61
2023/02/07 05:58:45;;;;;;;206.40;75.10;;;;;;;-8.05;81.08;102813.81;106823;1268;24199;-61
2023/02/07 06:01:17;;;;;;;203.70;80.30;;;;;;;-8.01;81.31;102823.67;106660;1272;24343;-61
2023/02/07 06:03:48;;;;;;;204.40;79.10;;;;;;;-8.00;81.00;102822.46;107179;1266;22758;-61
2023/02/07 06:06:18;;;;;;;240.10;86.80;;;;;;;-8.01;80.76;102826.27;106787;1273;25284;-61
2023/02/07 06:08:50;;;;;;;214.40;82.90;;;;;;;-8.06;80.59;102831.06;106659;1263;22608;-61
2023/02/07 06:11:21;;;;;;;194.20;80.50;;;;;;;-8.10;80.54;102834.20;106893;1274;22563;-61
2023/02/07 06:13:52;;;;;;;199.90;79.40;;;;;;;-8.11;80.67;102836.59;106728;1273;21792;-61
2023/02/07 06:16:23;;;;;;;195.20;81.50;;;;;;;-8.09;81.08;102837.27;106743;1258;22842;-62
2023/02/07 06:18:55;;;;;;;209.20;81.50;;;;;;;-8.07;80.94;102839.14;106730;1273;24212;-61
2023/02/07 06:21:26;;;;;;;201.60;78.00;;;;;;;-8.06;81.04;102840.33;107086;1263;21924;-61
2023/02/07 06:23:57;;;;;;;207.80;79.10;;;;;;;-8.03;81.08;102842.06;106757;1268;23139;-61
2023/02/07 06:26:28;;;;;;;193.80;78.60;;;;;;;-8.02;80.91;102843.48;106727;1270;25737;-61
2023/02/07 06:28:59;;;;;;;201.40;80.00;;;;;;;-8.03;80.69;102844.41;106704;1266;22608;-61
2023/02/07 06:31:30;;;;;;;198.20;78.70;;;;;;;-8.05;80.78;102844.33;106725;1265;22576;-61
2023/02/07 06:34:01;;;;;;;194.50;75.10;;;;;;;-8.03;81.06;102847.83;106648;1273;22665;-61
2023/02/07 06:36:32;;;;;;;195.20;81.40;;;;;;;-8.01;81.28;102849.84;106674;1273;24213;-62
2023/02/07 06:39:03;;;;;;;208.80;82.10;;;;;;;-7.98;81.23;102849.48;106632;1273;24362;-61
2023/02/07 06:41:34;;;;;;;217.00;86.60;;;;;;;-7.98;81.30;102854.25;106707;1273;22672;-61
2023/02/07 06:44:05;;;;;;;206.30;84.10;;;;;;;-7.98;81.16;102856.48;106705;1270;22554;-62
2023/02/07 06:46:36;;;;;;;226.90;88.50;;;;;;;-7.99;81.11;102858.99;106857;1267;24310;-61
2023/02/07 06:49:08;;;;;;;244.60;96.90;;;;;;;-8.01;81.01;102857.94;106792;1264;22656;-61
2023/02/07 06:51:39;;;;;;;249.80;104.10;;;;;;;-8.04;81.17;102863.50;106788;1273;22636;-61
2023/02/07 06:54:10;;;;;;;259.10;106.30;;;;;;;-8.02;81.55;102860.49;106811;1269;22556;-61
2023/02/07 06:56:41;;;;;;;263.20;110.10;;;;;;;-8.00;81.45;102863.40;106700;1270;24281;-61
2023/02/07 06:59:12;;;;;;;269.00;105.80;;;;;;;-8.01;81.37;102863.29;106671;1267;23772;-62
2023/02/07 07:01:43;;;;;;;264.40;107.40;;;;;;;-8.03;81.27;102869.82;106822;1267;24368;-62
2023/02/07 07:04:14;;;;;;;263.90;110.10;;;;;;;-8.04;81.36;102868.17;106758;1271;25489;-62
2023/02/07 07:06:46;;;;;;;262.80;106.30;;;;;;;-8.03;81.58;102864.23;106829;1269;22559;-62
2023/02/07 07:09:17;;;;;;;249.00;102.40;;;;;;;-7.99;81.73;102865.76;106831;1273;24378;-62
2023/02/07 07:11:48;;;;;;;266.80;109.10;;;;;;;-7.97;81.62;102866.23;106808;1273;26886;-62
2023/02/07 07:14:20;;;;;;;260.70;110.00;;;;;;;-7.96;81.55;102865.89;106757;1270;22589;-63
2023/02/07 07:16:51;;;;;;;277.20;109.40;;;;;;;-7.96;81.76;102865.06;106655;1258;25237;-61
2023/02/07 07:19:22;;;;;;;264.10;105.30;;;;;;;-7.94;81.85;102871.23;106703;1263;22656;-61
2023/02/07 07:21:54;;;;;;;252.30;106.40;;;;;;;-7.92;82.01;102881.34;106728;1273;23273;-61
2023/02/07 07:24:26;;;;;;;266.00;106.40;;;;;;;-7.89;82.24;102876.27;107204;1267;22672;-61
2023/02/07 07:26:57;;;;;;;283.70;111.20;;;;;;;-7.86;82.43;102876.43;106718;1267;22598;-62
2023/02/07 07:29:28;;;;;;;292.80;121.70;;;;;;;-7.82;82.46;102877.80;106768;1257;22565;-60
2023/02/07 07:31:59;;;;;;;290.60;116.30;;;;;;;-7.81;82.52;102878.88;106679;1251;25457;-62
2023/02/07 07:34:30;;;;;;;237.50;100.40;;;;;;;-7.78;82.65;102886.11;106637;1263;22586;-62
2023/02/07 07:37:01;;;;;;;222.40;93.70;;;;;;;-7.74;83.12;102884.89;106672;1273;22574;-62
2023/02/07 07:39:32;;;;;;;221.00;93.60;;;;;;;-7.69;83.35;102887.71;106650;1267;22650;-61
2023/02/07 07:42:04;;;;;;;222.80;93.90;;;;;;;-7.63;83.69;102892.67;106651;1269;23085;-61
2023/02/07 07:44:35;;;;;;;223.30;91.60;;;;;;;-7.56;84.01;102901.90;106677;1270;22597;-62
2023/02/07 07:47:06;;;;;;;206.20;84.30;;;;;;;-7.51;84.16;102901.27;106825;1270;22713;-61
2023/02/07 07:49:37;;;;;;;211.00;82.60;;;;;;;-7.45;84.34;102899.78;106831;1273;24240;-61
2023/02/07 07:52:08;;;;;;;223.80;92.00;;;;;;;-7.36;84.78;102899.29;106682;1268;22723;-61
2023/02/07 07:54:39;;;;;;;225.60;90.20;;;;;;;-7.29;84.85;102901.29;106626;1273;22611;-61
2023/02/07 07:57:10;;;;;;;204.60;86.50;;;;;;;-7.22;84.84;102905.10;106703;1270;22620;-61
2023/02/07 07:59:41;;;;;;;201.60;82.90;;;;;;;-7.16;85.04;102906.41;106958;1264;26140;-61
2023/02/07 08:02:14;;;;;;;210.90;84.00;;;;;;;-7.09;85.57;102901.99;106789;1267;25558;-61
2023/02/07 08:04:45;;;;;;;209.10;86.40;;;;;;;-7.00;85.51;102901.64;106768;1259;22574;-61
2023/02/07 08:07:16;;;;;;;198.90;82.80;;;;;;;-6.94;85.53;102907.25;106805;1257;22565;-62
2023/02/07 08:09:47;;;;;;;205.80;87.50;;;;;;;-6.87;85.76;102905.55;106675;1273;22551;-62
2023/02/07 08:12:18;;;;;;;189.90;80.10;;;;;;;-6.79;86.04;102899.87;106948;1261;22565;-62
2023/02/07 08:14:49;;;;;;;208.60;88.30;;;;;;;-6.68;86.38;102896.05;106745;1270;22668;-62
2023/02/07 08:17:20;;;;;;;162.00;67.50;;;;;;;-6.60;86.61;102899.05;106763;1267;25493;-62
2023/02/07 08:19:51;;;;;;;167.00;68.70;;;;;;;-6.49;87.06;102898.68;106700;1270;22567;-62
2023/02/07 08:22:22;;;;;;;165.30;64.90;;;;;;;-6.37;87.17;102888.30;107037;1267;22617;-61
2023/02/07 08:24:53;;;;;;;177.60;76.40;;;;;;;-6.27;87.35;102886.10;106759;1273;22597;-62
2023/02/07 08:27:25;;;;;;;155.60;62.40;;;;;;;-6.19;87.33;102879.77;106756;1263;22668;-62
2023/02/07 08:29:56;;;;;;;161.20;66.10;;;;;;;-6.10;87.23;102874.83;106834;1273;24234;-62
2023/02/07 08:32:28;;;;;;;155.70;65.80;;;;;;;-6.02;87.17;102872.38;106757;1257;24258;-62
2023/02/07 08:34:59;;;;;;;171.90;67.90;;;;;;;-5.96;87.13;102868.10;107011;1267;25760;-62
2023/02/07 08:37:30;;;;;;;166.00;68.10;;;;;;;-5.89;87.35;102864.47;106728;1273;22654;-61
2023/02/07 08:40:01;;;;;;;149.00;64.70;;;;;;;-5.80;87.43;102858.44;106873;1273;22695;-62
2023/02/07 08:42:33;;;;;;;165.60;68.90;;;;;;;-5.73;87.46;102856.20;106688;1266;22663;-62
2023/02/07 08:45:04;;;;;;;163.00;68.90;;;;;;;-5.63;87.68;102850.88;106673;1267;22727;-62
2023/02/07 08:47:35;;;;;;;136.00;59.70;;;;;;;-5.54;87.71;102852.54;106793;1260;22580;-61
2023/02/07 08:50:09;;;;;;;124.50;53.00;;;;;;;-5.45;87.98;102853.19;106776;1269;22647;-62
2023/02/07 08:52:40;;;;;;;123.10;50.80;;;;;;;-5.35;88.16;102857.02;106792;1270;22669;-62
2023/02/07 08:55:11;;;;;;;104.70;46.00;;;;;;;-5.25;87.99;102859.35;106695;1267;25397;-61
2023/02/07 08:57:42;;;;;;;113.40;46.90;;;;;;;-5.16;87.95;102857.80;106844;1270;22643;-61
2023/02/07 09:00:16;;;;;;;106.40;45.10;;;;;;;-5.06;87.96;102856.92;106724;1271;22724;-62
2023/02/07 09:02:47;;;;;;;109.60;45.60;;;;;;;-4.96;88.00;102860.75;106655;1257;24204;-62
2023/02/07 09:05:18;;;;;;;97.80;42.60;;;;;;;-4.89;87.96;102855.35;106689;1271;22601;-62
2023/02/07 09:07:49;;;;;;;103.60;44.10;;;;;;;-4.81;87.99;102854.52;106784;1260;24298;-62
2023/02/07 09:10:21;;;;;;;107.00;43.40;;;;;;;-4.73;88.05;102854.08;106642;1267;22603;-61
2023/02/07 09:12:52;;;;;;;102.30;43.00;;;;;;;-4.64;88.20;102854.41;106766;1273;25681;-61
2023/02/07 09:15:24;;;;;;;96.80;41.00;;;;;;;-4.54;88.15;102858.88;106605;1272;22617;-61
2023/02/07 09:17:56;;;;;;;85.30;33.80;;;;;;;-4.47;87.93;102862.63;106773;1273;27733;-63
2023/02/07 09:20:27;;;;;;;77.10;31.00;;;;;;;-4.43;87.36;102857.00;106724;1270;22594;-62
2023/02/07 09:23:18;;;;;;;89.60;35.70;;;;;;;-4.37;87.12;102857.99;106835;1273;24372;-61
2023/02/07 09:25:51;;;;;;;91.70;38.90;;;;;;;-4.28;87.48;102856.46;106626;1270;24382;-61
2023/02/07 09:28:23;;;;;;;88.90;36.20;;;;;;;-4.19;87.66;102859.54;106662;1257;24336;-62
2023/02/07 09:30:54;;;;;;;92.10;36.10;;;;;;;-4.10;87.88;102858.41;106738;1273;24269;-63
2023/02/07 09:33:25;;;;;;;88.70;37.20;;;;;;;-4.00;87.68;102861.20;106858;1267;22615;-62
2023/02/07 09:35:56;;;;;;;95.60;38.10;;;;;;;-3.93;87.75;102861.25;106626;1273;22778;-62
2023/02/07 09:38:27;;;;;;;95.90;37.10;;;;;;;-3.86;87.63;102860.65;106842;1273;22597;-61
2023/02/07 09:40:59;;;;;;;82.70;34.10;;;;;;;-3.79;87.41;102860.89;106905;1260;22792;-61
2023/02/07 09:43:43;;;;;;;75.20;31.20;;;;;;;-3.70;87.33;102854.22;106784;1273;22695;-62
2023/02/07 09:46:21;;;;;;;75.10;27.20;;;;;;;-3.62;87.25;102854.44;106766;1257;24193;-61
2023/02/07 09:48:59;;;;;;;64.20;26.90;;;;;;;-3.55;87.23;102852.45;106590;1273;22753;-62
2023/02/07 09:51:33;;;;;;;51.00;19.80;;;;;;;-3.48;87.07;102851.96;107035;1270;22684;-62
2023/02/07 09:54:06;;;;;;;37.90;13.20;;;;;;;-3.38;86.92;102850.48;106810;1273;26799;-62
2023/02/07 09:56:38;;;;;;;41.60;14.00;;;;;;;-3.26;86.47;102854.83;106921;1256;22899;-61
2023/02/07 09:59:21;;;;;;;40.30;13.50;;;;;;;-3.18;86.19;102849.67;106740;1263;26777;-62
2023/02/07 10:01:58;;;;;;;36.10;13.70;;;;;;;-3.07;85.88;102849.43;106875;1270;22656;-62
2023/02/07 10:04:38;;;;;;;37.80;12.60;;;;;;;-2.99;85.60;102854.71;106836;1273;22658;-62
2023/02/07 10:07:12;;;;;;;43.10;15.50;;;;;;;-2.90;85.42;102855.98;106793;1266;25309;-62
2023/02/07 10:09:45;;;;;;;39.00;14.20;;;;;;;-2.83;85.13;102857.75;106994;1263;25386;-62
2023/02/07 10:12:36;;;;;;;35.60;13.70;;;;;;;-2.76;84.91;102855.88;106777;1270;22654;-62
2023/02/07 10:15:25;;;;;;;41.10;13.40;;;;;;;-2.70;84.77;102859.88;106906;1263;25579;-62
2023/02/07 10:18:25;;;;;;;41.30;15.20;;;;;;;-2.63;85.09;102855.89;106796;1265;22602;-62
2023/02/07 10:21:02;;;;;;;44.30;16.20;;;;;;;-2.55;84.88;102853.34;106957;1271;22664;-62
2023/02/07 10:23:42;;;;;;;47.80;18.10;;;;;;;-2.49;84.66;102858.84;106740;1269;23983;-62
2023/02/07 10:26:22;;;;;;;42.50;15.20;;;;;;;-2.42;84.61;102853.70;106771;1258;22538;-62
2023/02/07 10:29:18;;;;;;;41.30;15.30;;;;;;;-2.34;84.48;102852.64;106815;1273;22768;-62
2023/02/07 10:31:51;;;;;;;46.80;18.30;;;;;;;-2.27;84.33;102853.40;106602;1260;22566;-62
2023/02/07 10:34:25;;;;;;;41.20;15.60;;;;;;;-2.23;84.53;102852.07;106644;1257;26700;-62
2023/02/07 10:36:58;;;;;;;43.00;17.50;;;;;;;-2.16;84.39;102852.60;106691;1273;22626;-62
2023/02/07 10:39:34;;;;;;;52.60;19.70;;;;;;;-2.09;84.35;102844.44;107037;1270;24232;-62
2023/02/07 10:42:05;;;;;;;49.90;18.90;;;;;;;-2.04;84.22;102840.45;107143;1265;25540;-62
2023/02/07 10:44:37;;;;;;;41.00;15.90;;;;;;;-1.96;84.07;102842.88;106789;1263;22593;-62
2023/02/07 10:47:13;;;;;;;50.40;17.50;;;;;;;-1.90;83.70;102841.92;106750;1262;22580;-62
2023/02/07 10:49:47;;;;;;;49.10;18.50;;;;;;;-1.87;83.71;102844.01;107288;1273;22683;-62
2023/02/07 10:52:29;;;;;;;52.90;19.60;;;;;;;-1.83;83.84;102839.70;107061;1259;22528;-62
2023/02/07 10:55:01;;;;;;;44.70;16.50;;;;;;;-1.76;83.82;102844.50;107030;1267;22640;-61
2023/02/07 10:57:32;;;;;;;47.90;18.70;;;;;;;-1.71;83.53;102844.73;107124;1258;25576;-63
2023/02/07 11:00:09;;;;;;;37.30;17.20;;;;;;;-1.68;83.18;102845.69;106918;1268;24366;-63
2023/02/07 11:02:50;;;;;;;41.70;16.70;;;;;;;-1.64;83.13;102847.41;107038;1268;25324;-62
2023/02/07 11:05:54;;;;;;;43.70;18.90;;;;;;;-1.58;83.33;102851.55;106983;1269;22598;-61
2023/02/07 11:08:28;;;;;;;43.40;15.70;;;;;;;-1.48;83.32;102855.67;107069;1273;22547;-62
2023/02/07 11:11:16;;;;;;;42.00;15.60;;;;;;;-1.38;83.25;102854.48;106958;1265;25594;-64
2023/02/07 11:13:53;;;;;;;42.00;14.30;;;;;;;-1.28;82.20;102854.96;106787;1270;22530;-62
2023/02/07 11:16:27;;;;;;;35.70;10.50;;;;;;;-1.20;82.10;102852.44;106839;1273;25608;-62
2023/02/07 11:19:01;;;;;;;30.90;11.30;;;;;;;-1.14;81.72;102853.43;106839;1273;24239;-63
2023/02/07 11:21:39;;;;;;;29.10;10.20;;;;;;;-1.08;81.94;102853.65;106956;1265;22599;-62
2023/02/07 11:24:16;;;;;;;34.10;12.70;;;;;;;-1.03;81.85;102853.66;106657;1267;25484;-62